Time;durP1;ratioP1;P1;durP2;ratioP2;P2;SDS_P1;SDS_P2;PMS_P1;PMS_P2;Temp;Humidity;BMP_temperature;BMP_pressure;BME280_temperature;BME280_humidity;BME280_pressure;Samples;Min_cycle;Max_cycle;Signal;HPM_P1;HPM_P2
2022/03/15 00:01:13;;;;;;;13.80;13.20;;;;;;;3.04;56.56;101797.88;103273;1281;108845;-63
2022/03/15 00:03:41;;;;;;;15.20;14.60;;;;;;;3.07;56.49;101796.23;103466;1281;98876;-63
2022/03/15 00:06:09;;;;;;;15.30;14.70;;;;;;;3.09;56.38;101790.68;103580;1281;139184;-63
2022/03/15 00:08:37;;;;;;;14.30;13.70;;;;;;;3.09;56.43;101786.46;103359;1281;111512;-63
2022/03/15 00:11:05;;;;;;;14.20;13.60;;;;;;;3.07;56.39;101786.58;103297;1281;138883;-63
2022/03/15 00:13:38;;;;;;;12.80;12.30;;;;;;;3.02;56.55;101785.05;103379;1281;108759;-61
2022/03/15 00:16:07;;;;;;;12.70;12.20;;;;;;;2.95;56.87;101780.99;103535;1281;138865;-63
2022/03/15 00:18:37;;;;;;;12.20;11.70;;;;;;;2.90;56.80;101784.52;103499;1281;96510;-64
2022/03/15 00:21:10;;;;;;;14.70;14.10;;;;;;;2.91;56.81;101776.48;103414;1281;111283;-61
2022/03/15 00:23:39;;;;;;;14.70;14.10;;;;;;;2.89;57.08;101777.31;103382;1281;139034;-63
2022/03/15 00:26:07;;;;;;;12.90;12.40;;;;;;;2.88;57.26;101779.39;102925;1281;620238;-62
2022/03/15 00:28:36;;;;;;;13.20;12.70;;;;;;;2.84;57.42;101772.27;103367;1281;138816;-63
2022/03/15 00:31:04;;;;;;;14.20;13.60;;;;;;;2.82;57.24;101773.45;103617;1281;97936;-61
2022/03/15 00:33:32;;;;;;;12.90;12.40;;;;;;;2.81;57.38;101775.17;103341;1281;110809;-62
2022/03/15 00:36:00;;;;;;;13.70;13.20;;;;;;;2.82;57.51;101778.55;103270;1281;139446;-62
2022/03/15 00:38:30;;;;;;;14.00;13.40;;;;;;;2.83;57.39;101775.59;103568;1281;108755;-62
2022/03/15 00:40:58;;;;;;;13.00;12.50;;;;;;;2.84;57.38;101773.33;103306;1280;139016;-62
2022/03/15 00:43:26;;;;;;;14.80;14.20;;;;;;;2.83;57.73;101772.43;103380;1281;97066;-64
2022/03/15 00:45:55;;;;;;;14.60;14.00;;;;;;;2.83;57.51;101775.58;103235;1281;111064;-62
2022/03/15 00:48:23;;;;;;;12.30;11.80;;;;;;;2.79;57.12;101773.89;103274;1281;138716;-63
2022/03/15 00:50:53;;;;;;;11.30;10.90;;;;;;;2.73;57.48;101772.50;103346;1281;106955;-63
2022/03/15 00:53:21;;;;;;;12.70;12.20;;;;;;;2.73;57.67;101768.63;103475;1281;139692;-62
2022/03/15 00:55:50;;;;;;;11.50;11.00;;;;;;;2.74;57.55;101768.85;103348;1279;97019;-65
2022/03/15 00:58:18;;;;;;;14.30;13.70;;;;;;;2.72;57.75;101773.86;103028;1282;139246;-61
2022/03/15 01:00:48;;;;;;;13.90;13.30;;;;;;;2.72;57.92;101766.33;103457;1279;99426;-61
2022/03/15 01:03:17;;;;;;;13.30;12.70;;;;;;;2.70;57.52;101767.67;103248;1281;108976;-62
2022/03/15 01:05:45;;;;;;;13.70;13.20;;;;;;;2.69;57.85;101767.13;103273;1279;138764;-63
2022/03/15 01:08:14;;;;;;;15.50;14.80;;;;;;;2.68;57.89;101763.40;103532;1279;97968;-65
2022/03/15 01:10:43;;;;;;;14.80;14.20;;;;;;;2.68;57.75;101763.08;103176;1281;139071;-64
2022/03/15 01:13:11;;;;;;;13.10;12.50;;;;;;;2.70;57.93;101761.70;103354;1280;99490;-64
2022/03/15 01:15:43;;;;;;;15.00;14.40;;;;;;;2.70;57.75;101759.42;103392;1281;109175;-63
2022/03/15 01:18:13;;;;;;;13.90;13.30;;;;;;;2.74;57.99;101760.23;103321;1280;138741;-63
2022/03/15 01:20:43;;;;;;;12.50;12.00;;;;;;;2.73;57.51;101761.09;107214;1279;94748;-63
2022/03/15 01:23:12;;;;;;;12.40;11.90;;;;;;;2.66;57.93;101757.57;104271;1278;142328;-64
2022/03/15 01:25:40;;;;;;;14.30;13.70;;;;;;;2.66;57.60;101757.92;103165;1281;99448;-61
2022/03/15 01:28:10;;;;;;;15.70;15.00;;;;;;;2.62;57.76;101757.47;105443;1279;139384;-60
2022/03/15 01:30:38;;;;;;;12.80;12.30;;;;;;;2.63;57.74;101756.77;103193;1279;97887;-63
2022/03/15 01:33:06;;;;;;;12.70;12.20;;;;;;;2.59;57.85;101755.45;107198;1279;94868;-63
2022/03/15 01:35:36;;;;;;;11.90;11.40;;;;;;;2.54;57.77;101756.71;103521;1281;138560;-62
2022/03/15 01:38:04;;;;;;;14.30;13.70;;;;;;;2.60;57.92;101748.98;103293;1281;99581;-62
2022/03/15 01:40:33;;;;;;;14.60;14.00;;;;;;;2.63;57.85;101749.08;103522;1281;139320;-61
2022/03/15 01:43:02;;;;;;;14.30;13.70;;;;;;;2.62;57.61;101752.02;103395;1281;96600;-63
2022/03/15 01:45:34;;;;;;;15.20;14.50;;;;;;;2.56;57.68;101748.88;103461;1281;96545;-63
2022/03/15 01:48:06;;;;;;;12.80;12.30;;;;;;;2.49;58.00;101746.23;103363;1281;138534;-62
2022/03/15 01:50:35;;;;;;;13.30;12.70;;;;;;;2.44;58.09;101751.15;103427;1281;99394;-63
2022/03/15 01:53:06;;;;;;;12.80;12.30;;;;;;;2.47;58.25;101754.59;103235;1281;139333;-63
2022/03/15 01:55:38;;;;;;;13.80;13.20;;;;;;;2.54;58.02;101760.58;103386;1281;97645;-64
2022/03/15 01:58:06;;;;;;;14.40;13.80;;;;;;;2.71;57.36;101763.33;103338;1281;138806;-61
2022/03/15 02:00:34;;;;;;;15.70;15.00;;;;;;;2.79;57.08;101762.13;103480;1281;111054;-64
2022/03/15 02:03:03;;;;;;;14.60;14.00;;;;;;;2.78;57.11;101760.52;103059;1281;99361;-63
2022/03/15 02:05:31;;;;;;;12.40;11.90;;;;;;;2.76;56.79;101757.49;103213;1281;139086;-65
2022/03/15 02:08:10;;;;;;;14.00;13.40;;;;;;;2.68;57.31;101749.58;103407;1281;96905;-64
2022/03/15 02:10:38;;;;;;;14.90;14.30;;;;;;;2.63;57.21;101752.42;103404;1281;138755;-64
2022/03/15 02:13:07;;;;;;;13.70;13.10;;;;;;;2.63;57.38;101749.93;103419;1281;111479;-65
2022/03/15 02:15:36;;;;;;;15.00;14.40;;;;;;;2.60;57.29;101748.11;103380;1280;98574;-64
2022/03/15 02:18:05;;;;;;;13.50;12.90;;;;;;;2.51;57.40;101750.65;103272;1281;138849;-62
2022/03/15 02:20:34;;;;;;;12.30;11.80;;;;;;;2.42;57.92;101747.78;103113;1281;97096;-62
2022/03/15 02:23:01;;;;;;;14.80;14.20;;;;;;;2.44;57.94;101745.39;103166;1281;139310;-63
2022/03/15 02:25:29;;;;;;;13.40;12.80;;;;;;;2.45;57.81;101746.63;103413;1279;112159;-63
2022/03/15 02:27:57;;;;;;;12.30;11.80;;;;;;;2.44;57.80;101750.98;103263;1281;99771;-61
2022/03/15 02:30:25;;;;;;;13.40;12.90;;;;;;;2.43;57.68;101746.23;103246;1281;138898;-63
2022/03/15 02:32:54;;;;;;;14.60;14.00;;;;;;;2.34;57.95;101740.35;103393;1280;97328;-64
2022/03/15 02:35:22;;;;;;;14.80;14.20;;;;;;;2.31;57.87;101743.09;103270;1281;139088;-65
2022/03/15 02:37:50;;;;;;;12.40;11.90;;;;;;;2.26;58.27;101742.95;103378;1281;111232;-65
2022/03/15 02:40:18;;;;;;;17.30;16.50;;;;;;;2.32;58.05;101742.05;103300;1281;139250;-63
2022/03/15 02:42:46;;;;;;;10.80;10.40;;;;;;;2.33;58.16;101742.08;103498;1281;108750;-63
2022/03/15 02:45:15;;;;;;;11.90;11.40;;;;;;;2.27;58.07;101747.87;103326;1281;96620;-64
2022/03/15 02:47:47;;;;;;;14.70;14.10;;;;;;;2.26;58.21;101744.15;103281;1281;139126;-65
2022/03/15 02:50:15;;;;;;;14.30;13.70;;;;;;;2.25;58.17;101743.44;103650;1281;111869;-64
2022/03/15 02:52:43;;;;;;;14.40;13.80;;;;;;;2.21;58.24;101750.66;103304;1281;141091;-62
2022/03/15 02:55:12;;;;;;;12.40;11.90;;;;;;;2.14;58.40;101749.59;103360;1281;108813;-63
2022/03/15 02:57:41;;;;;;;12.80;12.30;;;;;;;2.08;58.70;101750.98;103388;1280;97907;-63
2022/03/15 03:00:10;;;;;;;12.40;11.90;;;;;;;2.05;58.64;101752.99;103294;1281;139434;-62
2022/03/15 03:02:38;;;;;;;14.60;14.00;;;;;;;2.07;58.77;101747.63;103374;1280;111090;-62
2022/03/15 03:05:07;;;;;;;13.60;13.10;;;;;;;2.10;58.55;101753.50;103557;1281;139280;-64
2022/03/15 03:07:35;;;;;;;15.90;15.20;;;;;;;2.11;58.74;101751.42;103406;1280;109463;-63
2022/03/15 03:10:05;;;;;;;14.60;14.00;;;;;;;2.11;58.42;101751.09;103220;1281;139455;-63
2022/03/15 03:12:34;;;;;;;14.00;13.40;;;;;;;2.12;58.44;101751.09;103335;1281;96559;-63
2022/03/15 03:15:02;;;;;;;16.50;15.80;;;;;;;2.15;58.38;101755.76;103380;1281;111140;-63
2022/03/15 03:17:30;;;;;;;15.60;15.00;;;;;;;2.22;57.95;101760.50;103281;1280;138680;-64
2022/03/15 03:19:58;;;;;;;15.10;14.50;;;;;;;2.20;58.14;101762.71;103405;1280;108922;-63
2022/03/15 03:22:25;;;;;;;14.70;14.10;;;;;;;2.29;57.83;101761.24;103278;1281;139264;-63
2022/03/15 03:24:53;;;;;;;14.80;14.20;;;;;;;2.35;57.80;101757.23;103384;1281;97476;-62
2022/03/15 03:27:21;;;;;;;12.70;12.20;;;;;;;2.30;57.63;101757.27;103334;1280;111055;-63
2022/03/15 03:29:49;;;;;;;16.60;15.90;;;;;;;2.27;57.62;101748.76;103327;1279;139084;-62
2022/03/15 03:32:17;;;;;;;16.50;15.80;;;;;;;2.37;57.32;101750.45;103200;1281;110179;-64
2022/03/15 03:34:45;;;;;;;15.60;15.00;;;;;;;2.41;56.76;101752.47;103242;1281;138952;-63
2022/03/15 03:37:13;;;;;;;15.40;14.80;;;;;;;2.38;56.89;101751.69;103385;1281;97031;-64
2022/03/15 03:39:41;;;;;;;10.10;9.70;;;;;;;2.33;56.91;101756.83;103400;1280;112212;-63
2022/03/15 03:42:09;;;;;;;13.50;12.90;;;;;;;2.36;56.97;101755.31;103252;1281;139196;-64
2022/03/15 03:44:41;;;;;;;13.00;12.50;;;;;;;2.32;56.80;101756.77;103417;1281;109038;-64
2022/03/15 03:47:10;;;;;;;14.80;14.20;;;;;;;2.33;56.88;101755.58;103246;1279;138824;-63
2022/03/15 03:49:39;;;;;;;12.50;12.00;;;;;;;2.22;56.97;101758.58;103381;1281;97772;-65
2022/03/15 03:52:08;;;;;;;14.40;13.80;;;;;;;2.17;57.20;101758.26;103211;1281;139269;-64
2022/03/15 03:54:36;;;;;;;16.60;15.90;;;;;;;2.13;57.28;101759.86;103345;1281;99969;-63
2022/03/15 03:57:03;;;;;;;15.10;14.40;;;;;;;2.13;57.60;101764.96;103322;1280;109282;-63
2022/03/15 03:59:31;;;;;;;15.20;14.60;;;;;;;2.04;57.59;101764.37;103284;1280;138681;-62
2022/03/15 04:01:59;;;;;;;13.90;13.30;;;;;;;1.98;57.79;101762.05;103344;1280;97211;-64
2022/03/15 04:04:28;;;;;;;11.80;11.30;;;;;;;1.86;58.14;101766.60;103259;1281;139094;-63
2022/03/15 04:06:56;;;;;;;14.10;13.50;;;;;;;1.82;58.43;101768.23;103322;1281;99461;-62
2022/03/15 04:09:26;;;;;;;15.40;14.70;;;;;;;1.82;58.11;101764.19;103427;1281;109474;-64
2022/03/15 04:11:56;;;;;;;12.90;12.40;;;;;;;1.80;58.32;101759.59;103260;1280;138831;-62
2022/03/15 04:14:24;;;;;;;15.50;14.80;;;;;;;1.81;58.06;101761.21;103415;1281;97109;-62
2022/03/15 04:16:51;;;;;;;11.70;11.20;;;;;;;1.82;58.33;101759.66;103250;1281;138631;-62
2022/03/15 04:19:20;;;;;;;11.60;11.20;;;;;;;1.72;58.52;101759.66;103426;1280;100318;-64
2022/03/15 04:21:48;;;;;;;14.40;13.80;;;;;;;1.72;58.61;101761.25;103351;1280;108807;-63
2022/03/15 04:24:18;;;;;;;14.20;13.60;;;;;;;1.86;58.21;101757.48;103304;1281;139448;-62
2022/03/15 04:26:47;;;;;;;17.60;16.80;;;;;;;1.96;57.82;101749.92;103345;1280;96574;-63
2022/03/15 04:29:15;;;;;;;13.90;13.30;;;;;;;2.04;57.66;101745.77;103215;1281;138258;-62
2022/03/15 04:31:43;;;;;;;12.50;12.00;;;;;;;1.98;57.71;101745.09;103320;1279;99418;-64
2022/03/15 04:34:11;;;;;;;15.80;15.10;;;;;;;1.88;57.85;101742.86;103427;1279;139696;-64
2022/03/15 04:36:40;;;;;;;14.90;14.30;;;;;;;1.87;57.89;101744.92;103366;1280;97840;-62
2022/03/15 04:39:09;;;;;;;13.90;13.30;;;;;;;1.84;58.04;101741.84;103431;1279;97036;-62
2022/03/15 04:41:37;;;;;;;15.70;15.10;;;;;;;1.76;58.09;101745.10;103300;1280;138709;-64
2022/03/15 04:44:06;;;;;;;14.70;14.10;;;;;;;1.69;58.63;101750.13;103413;1279;99403;-62
2022/03/15 04:46:33;;;;;;;11.80;11.30;;;;;;;1.72;58.39;101747.78;103287;1279;139040;-63
2022/03/15 04:49:03;;;;;;;14.60;14.00;;;;;;;1.76;58.39;101745.44;103404;1279;96603;-63
2022/03/15 04:51:31;;;;;;;14.00;13.40;;;;;;;1.67;58.58;101746.75;103605;1279;96614;-64
2022/03/15 04:53:59;;;;;;;14.80;14.20;;;;;;;1.71;58.77;101746.70;103309;1279;138809;-64
2022/03/15 04:56:28;;;;;;;14.90;14.30;;;;;;;1.89;58.22;101739.72;103418;1279;99389;-61
2022/03/15 04:58:55;;;;;;;14.00;13.40;;;;;;;2.00;57.56;101741.63;103327;1279;138336;-63
2022/03/15 05:01:24;;;;;;;13.00;12.50;;;;;;;2.01;57.11;101738.51;103624;1281;97165;-64
2022/03/15 05:03:52;;;;;;;12.60;12.10;;;;;;;2.09;57.16;101739.11;103383;1279;97810;-65
2022/03/15 05:06:20;;;;;;;13.50;12.90;;;;;;;2.10;57.29;101737.73;103332;1279;139190;-62
2022/03/15 05:08:48;;;;;;;14.00;13.40;;;;;;;2.10;57.37;101735.79;103412;1279;99327;-62
2022/03/15 05:11:18;;;;;;;13.30;12.80;;;;;;;2.04;57.54;101732.46;103241;1280;138977;-64
2022/03/15 05:13:48;;;;;;;13.80;13.20;;;;;;;2.02;57.33;101738.52;103541;1281;96620;-62
2022/03/15 05:16:19;;;;;;;14.80;14.20;;;;;;;2.06;57.47;101743.21;103302;1279;139342;-63
2022/03/15 05:18:54;;;;;;;13.20;12.70;;;;;;;2.02;57.37;101740.11;103412;1279;110035;-65
2022/03/15 05:21:25;;;;;;;19.50;18.60;;;;;;;2.04;57.59;101741.22;103472;1279;99458;-61
2022/03/15 05:23:53;;;;;;;12.90;12.40;;;;;;;2.08;57.53;101738.20;103262;1279;138826;-64
2022/03/15 05:26:22;;;;;;;14.50;13.90;;;;;;;2.05;57.65;101740.35;103370;1279;96615;-65
2022/03/15 05:28:51;;;;;;;15.20;14.60;;;;;;;2.04;57.86;101739.65;103252;1279;139407;-62
2022/03/15 05:31:20;;;;;;;12.50;12.00;;;;;;;2.06;57.96;101735.69;103388;1280;111045;-64
2022/03/15 05:33:52;;;;;;;13.90;13.30;;;;;;;2.17;57.27;101731.63;103571;1279;99379;-61
2022/03/15 05:36:20;;;;;;;15.20;14.60;;;;;;;2.25;57.36;101735.38;103244;1279;139459;-62
2022/03/15 05:38:48;;;;;;;14.40;13.80;;;;;;;2.37;57.04;101738.87;103412;1279;96756;-64
2022/03/15 05:41:16;;;;;;;14.00;13.40;;;;;;;2.45;56.82;101748.41;103194;1281;141369;-63
2022/03/15 05:44:00;;;;;;;12.00;11.50;;;;;;;2.53;56.51;101755.79;103532;1279;111259;-64
2022/03/15 05:46:28;;;;;;;12.30;11.80;;;;;;;2.58;56.86;101752.44;103231;1280;139139;-62
2022/03/15 05:48:56;;;;;;;13.50;12.90;;;;;;;2.57;56.73;101748.55;103352;1279;109970;-62
2022/03/15 05:51:24;;;;;;;18.60;17.80;;;;;;;2.55;57.03;101743.59;103379;1280;97130;-63
2022/03/15 05:53:51;;;;;;;15.00;14.30;;;;;;;2.59;57.22;101743.52;103281;1280;138540;-64
2022/03/15 05:56:19;;;;;;;14.80;14.20;;;;;;;2.72;56.91;101743.70;103210;1282;110481;-64
2022/03/15 05:58:48;;;;;;;14.70;14.10;;;;;;;2.81;56.88;101746.76;103398;1279;139273;-63
2022/03/15 06:01:19;;;;;;;13.00;12.50;;;;;;;2.85;56.89;101743.02;103428;1279;109040;-65
2022/03/15 06:03:47;;;;;;;15.60;14.90;;;;;;;2.94;56.75;101742.21;103191;1281;96665;-63
2022/03/15 06:06:15;;;;;;;13.90;13.30;;;;;;;3.12;56.62;101744.60;103226;1279;138961;-62
2022/03/15 06:08:43;;;;;;;14.60;14.00;;;;;;;3.27;56.38;101745.31;103315;1280;111875;-63
2022/03/15 06:11:11;;;;;;;13.70;13.10;;;;;;;3.36;56.49;101742.91;103246;1281;138662;-63
2022/03/15 06:13:39;;;;;;;13.50;13.00;;;;;;;3.44;56.39;101745.58;103369;1279;108662;-62
2022/03/15 06:16:06;;;;;;;15.70;15.00;;;;;;;3.59;55.98;101758.05;103309;1280;139305;-64
2022/03/15 06:18:35;;;;;;;12.30;11.80;;;;;;;3.72;56.05;101756.08;103430;1281;96614;-63
2022/03/15 06:21:03;;;;;;;12.70;12.20;;;;;;;3.90;56.14;101757.92;103358;1279;111032;-63
2022/03/15 06:23:31;;;;;;;13.00;12.50;;;;;;;4.12;55.62;101764.90;103183;1280;139018;-62
2022/03/15 06:25:59;;;;;;;12.00;11.50;;;;;;;4.27;55.43;101763.12;103380;1281;109392;-64
2022/03/15 06:28:27;;;;;;;10.60;10.20;;;;;;;4.41;55.25;101759.71;103208;1281;139257;-64
2022/03/15 06:30:57;;;;;;;14.60;14.00;;;;;;;4.51;55.44;101759.23;103411;1280;97020;-63
2022/03/15 06:33:25;;;;;;;12.10;11.60;;;;;;;4.59;55.30;101765.55;103461;1280;110157;-65
2022/03/15 06:35:54;;;;;;;11.50;11.00;;;;;;;4.71;55.05;101767.71;103379;1279;138649;-64
2022/03/15 06:38:22;;;;;;;13.00;12.50;;;;;;;4.80;54.72;101764.21;103348;1280;108779;-64
2022/03/15 06:40:51;;;;;;;11.10;10.70;;;;;;;4.85;55.20;101764.82;103370;1280;139104;-61
2022/03/15 06:43:19;;;;;;;12.00;11.50;;;;;;;4.93;54.61;101760.94;103506;1279;96891;-66
2022/03/15 06:45:47;;;;;;;14.20;13.60;;;;;;;5.01;54.54;101761.42;103428;1280;111236;-63
2022/03/15 06:48:15;;;;;;;13.30;12.80;;;;;;;5.09;54.66;101764.58;103397;1279;138998;-62
2022/03/15 06:50:43;;;;;;;12.20;11.70;;;;;;;5.24;53.81;101766.42;103385;1279;108827;-61
2022/03/15 06:53:11;;;;;;;15.00;14.40;;;;;;;5.38;53.36;101760.48;103097;1282;138850;-62
2022/03/15 06:55:39;;;;;;;12.90;12.40;;;;;;;5.47;53.30;101760.12;103367;1280;97206;-64
2022/03/15 06:58:06;;;;;;;11.00;10.60;;;;;;;5.53;53.64;101767.27;103350;1279;139128;-63
2022/03/15 07:00:34;;;;;;;12.30;11.80;;;;;;;5.68;54.00;101765.75;103417;1279;99474;-64
2022/03/15 07:03:04;;;;;;;12.90;12.40;;;;;;;5.82;54.03;101765.26;103420;1281;108778;-62
2022/03/15 07:05:32;;;;;;;14.00;13.40;;;;;;;5.91;54.66;101765.40;103443;1279;141485;-63
2022/03/15 07:08:00;;;;;;;12.90;12.40;;;;;;;6.03;54.95;101768.95;103430;1279;97072;-64
2022/03/15 07:10:28;;;;;;;10.70;10.30;;;;;;;6.18;55.21;101771.46;103324;1279;140934;-64
2022/03/15 07:12:56;;;;;;;10.90;10.50;;;;;;;6.29;55.05;101777.43;103458;1280;99719;-62
2022/03/15 07:15:23;;;;;;;10.50;10.10;;;;;;;6.32;55.00;101777.48;103352;1280;109132;-63
2022/03/15 07:17:58;;;;;;;11.80;11.30;;;;;;;6.38;54.96;101775.60;103278;1279;138730;-64
2022/03/15 07:20:27;;;;;;;12.20;11.70;;;;;;;6.44;55.19;101774.10;103412;1279;96768;-64
2022/03/15 07:22:55;;;;;;;10.30;9.90;;;;;;;6.57;55.04;101771.62;103351;1279;139931;-64
2022/03/15 07:25:23;;;;;;;11.50;11.10;;;;;;;6.74;54.77;101772.15;103431;1281;99486;-65
2022/03/15 07:27:51;;;;;;;10.50;10.10;;;;;;;6.88;54.61;101778.52;103362;1281;108620;-64
2022/03/15 07:30:18;;;;;;;12.10;11.60;;;;;;;6.95;54.70;101777.16;103321;1280;138911;-64
2022/03/15 07:32:46;;;;;;;9.40;9.10;;;;;;;7.03;54.81;101770.02;103363;1281;96946;-65
2022/03/15 07:35:15;;;;;;;10.40;10.00;;;;;;;7.16;54.81;101772.79;103237;1280;138886;-64
2022/03/15 07:37:51;;;;;;;10.70;10.20;;;;;;;7.23;55.09;101777.81;103305;1279;99431;-62
2022/03/15 07:40:19;;;;;;;12.10;11.60;;;;;;;7.31;54.96;101778.06;103421;1279;139215;-61
2022/03/15 07:42:48;;;;;;;9.70;9.30;;;;;;;7.37;55.17;101781.13;103415;1281;96627;-64
2022/03/15 07:45:16;;;;;;;9.50;9.10;;;;;;;7.45;55.09;101779.23;103500;1281;98016;-64
2022/03/15 07:47:44;;;;;;;8.60;8.30;;;;;;;7.53;55.36;101782.67;103281;1281;138276;-65
2022/03/15 07:50:11;;;;;;;9.70;9.30;;;;;;;7.60;55.26;101790.85;103443;1281;98527;-64
2022/03/15 07:52:39;;;;;;;10.60;10.20;;;;;;;7.67;55.41;101791.63;103247;1280;140435;-64
2022/03/15 07:55:09;;;;;;;10.40;10.00;;;;;;;7.78;55.13;101791.53;103422;1281;96613;-65
2022/03/15 07:57:37;;;;;;;9.10;8.70;;;;;;;7.90;54.96;101792.52;103431;1280;96980;-64
2022/03/15 08:00:05;;;;;;;9.60;9.20;;;;;;;8.01;54.59;101790.11;103326;1279;138576;-63
2022/03/15 08:02:40;;;;;;;9.10;8.70;;;;;;;8.12;54.72;101790.36;103254;1281;100054;-64
2022/03/15 08:05:09;;;;;;;9.50;9.10;;;;;;;8.26;54.65;101797.52;103067;1281;138972;-63
2022/03/15 08:07:37;;;;;;;9.90;9.50;;;;;;;8.47;54.40;101796.95;103222;1281;97035;-64
2022/03/15 08:10:07;;;;;;;10.20;9.80;;;;;;;8.70;54.00;101797.94;103214;1281;138925;-63
2022/03/15 08:12:39;;;;;;;10.40;10.00;;;;;;;8.83;53.80;101800.46;104183;1279;110371;-65
2022/03/15 08:15:08;;;;;;;10.80;10.40;;;;;;;8.90;53.36;101800.33;103333;1281;99290;-64
2022/03/15 08:17:37;;;;;;;9.70;9.30;;;;;;;8.89;53.28;101802.63;102981;1281;139374;-63
2022/03/15 08:20:06;;;;;;;10.00;9.60;;;;;;;8.93;53.59;101799.80;103351;1279;97096;-62
2022/03/15 08:22:34;;;;;;;9.10;8.70;;;;;;;8.97;53.49;101799.98;103200;1279;138595;-62
2022/03/15 08:25:04;;;;;;;11.20;10.70;;;;;;;8.98;53.65;101798.94;103318;1280;111071;-63
2022/03/15 08:27:32;;;;;;;9.50;9.10;;;;;;;9.03;53.59;101802.29;103306;1280;99566;-63
2022/03/15 08:30:00;;;;;;;8.40;8.10;;;;;;;9.08;53.63;101801.25;103159;1280;138268;-62
2022/03/15 08:32:28;;;;;;;10.00;9.60;;;;;;;9.15;53.36;101799.32;103228;1279;97120;-64
2022/03/15 08:34:56;;;;;;;10.90;10.50;;;;;;;9.24;53.21;101800.93;103143;1280;138937;-64
2022/03/15 08:37:24;;;;;;;9.90;9.50;;;;;;;9.44;52.93;101793.69;103642;1279;111367;-65
2022/03/15 08:39:52;;;;;;;9.80;9.40;;;;;;;9.55;52.86;101788.91;103279;1279;98480;-62
2022/03/15 08:42:23;;;;;;;9.80;9.40;;;;;;;9.67;52.77;101783.77;103517;1280;137886;-62
2022/03/15 08:44:52;;;;;;;10.20;9.80;;;;;;;9.79;52.72;101781.44;103277;1281;96590;-62
2022/03/15 08:47:20;;;;;;;9.00;8.70;;;;;;;9.96;52.32;101777.00;103234;1279;138281;-63
2022/03/15 08:49:48;;;;;;;9.00;8.70;;;;;;;10.03;52.16;101774.85;103559;1279;110382;-63
2022/03/15 08:52:16;;;;;;;10.10;9.70;;;;;;;10.11;52.09;101773.06;103189;1280;139080;-63
2022/03/15 08:54:43;;;;;;;9.70;9.30;;;;;;;10.18;52.01;101771.29;103283;1279;109051;-63
2022/03/15 08:57:11;;;;;;;9.30;8.90;;;;;;;10.30;51.74;101764.85;103315;1279;96741;-62
2022/03/15 08:59:39;;;;;;;9.20;8.80;;;;;;;10.44;51.65;101760.58;103161;1281;139589;-64
2022/03/15 09:02:09;;;;;;;9.40;9.10;;;;;;;10.67;51.18;101758.88;103336;1279;111377;-63
2022/03/15 09:04:38;;;;;;;7.90;7.60;;;;;;;10.96;50.93;101757.48;103230;1280;139516;-64
2022/03/15 09:07:06;;;;;;;7.70;7.40;;;;;;;11.23;50.05;101756.23;103310;1281;109025;-64
2022/03/15 09:09:34;;;;;;;7.80;7.50;;;;;;;11.52;49.67;101754.58;103252;1279;96597;-64
2022/03/15 09:12:03;;;;;;;9.00;8.60;;;;;;;11.63;49.24;101754.69;103229;1279;138968;-64
2022/03/15 09:14:32;;;;;;;7.40;7.10;;;;;;;11.57;49.24;101756.86;103372;1279;111183;-63
2022/03/15 09:17:00;;;;;;;7.60;7.30;;;;;;;11.70;49.21;101757.98;103165;1280;138823;-61
2022/03/15 09:19:28;;;;;;;7.80;7.50;;;;;;;11.80;49.13;101752.55;103333;1279;109167;-63
2022/03/15 09:21:59;;;;;;;8.60;8.30;;;;;;;11.96;48.58;101756.17;103345;1280;97903;-63
2022/03/15 09:24:27;;;;;;;7.10;6.90;;;;;;;11.88;48.39;101753.37;103173;1279;138731;-61
2022/03/15 09:26:54;;;;;;;8.10;7.80;;;;;;;11.83;48.60;101755.02;103299;1279;111144;-64
2022/03/15 09:29:22;;;;;;;7.70;7.40;;;;;;;11.74;48.97;101755.45;103181;1280;139213;-63
2022/03/15 09:31:51;;;;;;;7.90;7.60;;;;;;;11.76;49.18;101752.07;103259;1280;109564;-62
2022/03/15 09:34:21;;;;;;;7.20;6.90;;;;;;;11.76;49.15;101756.33;103237;1280;138717;-63
2022/03/15 09:36:49;;;;;;;8.70;8.40;;;;;;;11.62;49.65;101758.41;103132;1279;96581;-63
2022/03/15 09:39:18;;;;;;;7.50;7.20;;;;;;;11.54;50.09;101760.63;103348;1280;110929;-64
2022/03/15 09:41:50;;;;;;;9.30;8.90;;;;;;;11.49;50.40;101764.22;103214;1279;139212;-62
2022/03/15 09:44:19;;;;;;;8.70;8.40;;;;;;;11.46;50.69;101765.67;103206;1280;108871;-64
2022/03/15 09:46:50;;;;;;;7.50;7.20;;;;;;;11.41;50.86;101767.48;103046;1279;139310;-63
2022/03/15 09:49:26;;;;;;;8.20;7.90;;;;;;;11.28;51.20;101765.62;103486;1281;97034;-62
2022/03/15 09:51:56;;;;;;;9.40;9.00;;;;;;;11.04;52.02;101769.34;103262;1281;110685;-62
2022/03/15 09:54:25;;;;;;;7.00;6.70;;;;;;;10.99;52.25;101773.27;103204;1279;138430;-63
2022/03/15 09:56:54;;;;;;;9.30;8.90;;;;;;;10.98;52.45;101773.46;104022;1279;107863;-62
2022/03/15 09:59:23;;;;;;;8.20;7.90;;;;;;;10.92;52.61;101774.56;103053;1279;139185;-63
2022/03/15 10:01:54;;;;;;;8.00;7.70;;;;;;;10.86;52.48;101777.09;103319;1279;97958;-62
2022/03/15 10:04:24;;;;;;;7.20;6.90;;;;;;;10.79;52.54;101777.47;103490;1279;138748;-64
2022/03/15 10:06:53;;;;;;;8.00;7.70;;;;;;;10.77;52.58;101774.64;103267;1280;98895;-63
2022/03/15 10:09:21;;;;;;;8.40;8.10;;;;;;;10.78;52.58;101774.45;103534;1279;108428;-63
2022/03/15 10:11:50;;;;;;;8.70;8.40;;;;;;;10.81;52.55;101771.25;103721;1279;138711;-61
2022/03/15 10:14:19;;;;;;;8.30;8.00;;;;;;;10.85;52.25;101766.26;103402;1279;98367;-62
2022/03/15 10:16:49;;;;;;;7.30;7.00;;;;;;;10.90;52.13;101764.63;103317;1279;138656;-64
2022/03/15 10:19:17;;;;;;;8.60;8.30;;;;;;;10.97;52.00;101762.09;103562;1281;99811;-64
2022/03/15 10:21:51;;;;;;;7.20;6.90;;;;;;;11.14;51.54;101758.96;103369;1279;108987;-62
2022/03/15 10:24:29;;;;;;;8.20;7.90;;;;;;;11.56;51.06;101760.61;103312;1281;139140;-64
2022/03/15 10:27:01;;;;;;;7.20;6.90;;;;;;;11.81;50.20;101760.38;103571;1281;97026;-63
2022/03/15 10:29:30;;;;;;;7.30;7.00;;;;;;;11.79;50.02;101763.78;103065;1281;138496;-64
2022/03/15 10:32:01;;;;;;;7.50;7.20;;;;;;;11.72;50.02;101763.14;103477;1281;99431;-62
2022/03/15 10:34:29;;;;;;;7.80;7.50;;;;;;;11.74;49.94;101758.48;103166;1281;139598;-64
2022/03/15 10:36:57;;;;;;;7.80;7.50;;;;;;;12.33;49.35;101751.84;103366;1281;97844;-63
2022/03/15 10:39:26;;;;;;;8.80;8.50;;;;;;;13.02;47.94;101743.27;103318;1281;96483;-62
2022/03/15 10:42:00;;;;;;;7.30;7.10;;;;;;;13.77;45.77;101732.60;103542;1281;138463;-62
2022/03/15 10:44:34;;;;;;;7.70;7.40;;;;;;;13.85;45.45;101728.54;103455;1281;99536;-64
2022/03/15 10:47:12;;;;;;;6.60;6.40;;;;;;;14.03;45.10;101723.73;103238;1281;138594;-63
2022/03/15 10:49:50;;;;;;;7.40;7.10;;;;;;;14.41;44.40;101715.82;103489;1281;97110;-62
2022/03/15 10:52:48;;;;;;;7.30;7.00;;;;;;;14.42;43.69;101720.48;103266;1281;138604;-64
2022/03/15 10:55:24;;;;;;;7.80;7.50;;;;;;;14.54;44.11;101719.31;103212;1281;111904;-63
2022/03/15 10:58:05;;;;;;;8.30;8.00;;;;;;;14.72;43.98;101714.13;103404;1281;99377;-63
2022/03/15 11:00:42;;;;;;;6.90;6.70;;;;;;;14.63;43.16;101705.73;103144;1281;138353;-63
2022/03/15 11:03:16;;;;;;;7.20;6.90;;;;;;;14.43;43.84;101707.76;103218;1281;96609;-63
2022/03/15 11:05:46;;;;;;;7.20;7.00;;;;;;;14.32;43.71;101706.73;103324;1281;138484;-63
2022/03/15 11:08:15;;;;;;;7.90;7.60;;;;;;;14.21;43.86;101708.39;103560;1281;111004;-64
2022/03/15 11:10:49;;;;;;;7.50;7.20;;;;;;;14.06;44.25;101702.06;103052;1281;138847;-63
2022/03/15 11:13:17;;;;;;;6.10;5.90;;;;;;;13.89;44.69;101701.34;103372;1280;108856;-62
2022/03/15 11:15:48;;;;;;;8.00;7.70;;;;;;;13.84;45.01;101701.44;103136;1281;97174;-62